OPKC/KHI METAR and TAF weather

Enter ICAO airport designator
Station Type Date Time Source
OPKC METAR 2021/09/24 02:30 UTC NOAA

OPKC 240230Z 36004KT 4000 FU NSC 28/25 Q1006 NOSIG


Station Type Date Time Source
OPKC Decoded METAR 2021/09/24 02:30 UTC NOAA

Karachi Airport, Pakistan (OPKC) 24-54N 067-08E 22M
Sep 23, 2021 - 10:30 PM EDT / 2021.09.24 0230 UTC
Wind: from the N (360 degrees) at 5 MPH (4 KT):0
Visibility: 2 mile(s):0
Weather: smoke
Temperature: 82 F (28 C)
Dew Point: 77 F (25 C)
Relative Humidity: 83%
Pressure (altimeter): 29.71 in. Hg (1006 hPa)
ob: OPKC 240230Z 36004KT 4000 FU NSC 28/25 Q1006 NOSIG
cycle: 2

Station Type Date Time Source
OPKC TAF 2021/09/23 18:03 UTC NOAA

TAF OPKC 231600Z 2318/2424 26008G18KT 4000 FU SCT030 BKN100
TEMPO 2409/2415 03020G35KT 2000 -TSRA FEW025CB SCT030 OVC080

Example: see airport list